createdAt,value
2022-09-01T00:00:14.914Z,1.30
2022-09-01T00:05:16.457Z,1.52
2022-09-01T00:10:17.983Z,1.65
2022-09-01T00:15:19.509Z,1.75
2022-09-01T00:20:21.218Z,1.38
2022-09-01T00:25:24.746Z,1.80
2022-09-01T00:30:26.922Z,1.60
2022-09-01T00:35:28.580Z,1.42
2022-09-01T00:40:32.013Z,1.30
2022-09-01T00:45:33.610Z,1.60
2022-09-01T00:50:36.806Z,1.20
2022-09-01T00:55:39.361Z,1.10
2022-09-01T01:00:41.768Z,1.40
2022-09-01T01:05:53.914Z,1.55
2022-09-01T01:10:55.447Z,1.83
2022-09-01T01:15:57.693Z,1.15
2022-09-01T01:21:26.775Z,1.00
2022-09-01T01:26:28.481Z,1.02
2022-09-01T01:31:31.596Z,1.00
2022-09-01T01:36:36.259Z,1.17
2022-09-01T01:41:42.097Z,1.30
2022-09-01T01:46:47.333Z,1.10
2022-09-01T01:51:53.004Z,1.10
2022-09-01T01:56:55.594Z,1.10
2022-09-01T02:01:58.317Z,1.30
2022-09-01T02:07:00.254Z,1.40
2022-09-01T02:12:01.755Z,1.23
2022-09-01T02:17:03.703Z,1.13
2022-09-01T02:22:05.284Z,1.33
2022-09-01T02:27:06.867Z,1.50
2022-09-01T02:32:08.369Z,1.55
2022-09-01T02:37:09.873Z,1.02
2022-09-01T02:42:14.878Z,1.05
2022-09-01T02:47:16.382Z,1.00
2022-09-01T02:52:20.663Z,1.02
2022-09-01T02:57:24.314Z,0.85
2022-09-01T03:02:28.898Z,1.10
2022-09-01T03:07:31.179Z,0.75
2022-09-01T03:12:32.865Z,0.90
2022-09-01T03:17:35.035Z,1.25
2022-09-01T03:22:36.558Z,1.00
2022-09-01T03:27:38.146Z,1.00
2022-09-01T03:32:39.811Z,1.10
2022-09-01T03:37:44.260Z,1.00
2022-09-01T03:42:45.796Z,1.30
2022-09-01T03:47:47.654Z,1.30
2022-09-01T03:52:53.014Z,1.05
2022-09-01T03:57:57.038Z,1.20
2022-09-01T04:03:01.189Z,1.48
2022-09-01T04:08:06.293Z,1.02
2022-09-01T04:13:11.701Z,1.42
2022-09-01T04:18:21.828Z,1.25
2022-09-01T04:23:26.776Z,1.30
2022-09-01T04:28:37.124Z,1.20
2022-09-01T04:33:42.154Z,1.10
2022-09-01T04:38:43.692Z,1.30
2022-09-01T04:43:47.428Z,1.40
2022-09-01T04:48:52.937Z,1.60
2022-09-01T04:53:56.065Z,1.30
2022-09-01T04:58:57.554Z,1.77
2022-09-01T05:04:04.120Z,1.50
2022-09-01T05:09:06.198Z,1.33
2022-09-01T05:14:07.733Z,1.42
2022-09-01T05:19:14.741Z,1.90
2022-09-01T05:24:19.850Z,2.38
2022-09-01T05:29:21.358Z,1.85
2022-09-01T05:34:26.728Z,2.40
2022-09-01T05:39:28.624Z,2.20
2022-09-01T05:44:30.915Z,1.90
2022-09-01T05:49:33.199Z,2.38
2022-09-01T05:54:35.733Z,2.42
2022-09-01T05:59:41.097Z,2.67
2022-09-01T06:04:44.152Z,2.50
2022-09-01T06:09:48.644Z,1.80
2022-09-01T06:14:53.130Z,2.63
2022-09-01T06:19:56.772Z,1.90
2022-09-01T06:25:02.218Z,1.80
2022-09-01T06:30:15.007Z,1.80
2022-09-01T06:35:18.018Z,1.45
2022-09-01T06:40:19.599Z,1.67
2022-09-01T06:45:23.127Z,1.90
2022-09-01T06:55:49.248Z,1.80
2022-09-01T07:00:51.604Z,1.40
2022-09-01T07:06:01.185Z,1.50
2022-09-01T07:12:08.492Z,1.23
2022-09-01T07:22:08.620Z,1.30
2022-09-01T07:27:10.888Z,1.27
2022-09-01T07:42:32.052Z,1.33
2022-09-01T07:48:07.342Z,1.30
2022-09-01T07:53:09.441Z,1.10
2022-09-01T07:58:12.168Z,1.52
2022-09-01T08:03:14.653Z,1.50
2022-09-01T08:08:19.616Z,1.48
2022-09-01T08:13:22.233Z,1.30
2022-09-01T08:18:23.977Z,1.60
2022-09-01T08:23:27.259Z,1.38
2022-09-01T08:28:29.039Z,1.10
2022-09-01T08:33:34.550Z,1.45
2022-09-01T08:38:36.250Z,1.52
2022-09-01T08:44:00.580Z,1.20
2022-09-01T08:49:24.826Z,1.38
2022-09-01T08:54:49.748Z,1.75
2022-09-01T08:59:53.211Z,1.65
2022-09-01T09:05:24.640Z,1.23
2022-09-01T09:10:34.062Z,1.80
2022-09-01T09:15:44.636Z,1.70
2022-09-01T09:20:46.244Z,1.60
2022-09-01T09:25:47.741Z,1.40
2022-09-01T09:30:49.415Z,1.95
2022-09-01T09:35:51.013Z,1.40
2022-09-01T09:41:18.261Z,1.50
2022-09-01T09:46:25.180Z,1.40
2022-09-01T09:51:28.966Z,1.52
2022-09-01T09:56:31.124Z,1.45
2022-09-01T10:01:34.858Z,1.20
2022-09-01T10:06:47.454Z,1.42
2022-09-01T10:11:56.150Z,1.38
2022-09-01T10:17:04.451Z,1.20
2022-09-01T10:22:08.259Z,1.20
2022-09-01T10:27:32.473Z,1.20
2022-09-01T10:32:50.703Z,0.65
2022-09-01T10:37:59.430Z,0.65
2022-09-01T10:43:38.401Z,0.70
2022-09-01T10:48:55.574Z,0.50
2022-09-01T10:54:02.261Z,0.80
2022-09-01T10:59:44.353Z,0.50
2022-09-01T11:04:46.810Z,0.50
2022-09-01T11:10:36.581Z,0.50
2022-09-01T11:15:44.819Z,0.60
2022-09-01T11:20:46.951Z,0.50
2022-09-01T11:31:25.676Z,0.50
2022-09-01T11:36:31.079Z,0.73
2022-09-01T11:41:55.353Z,0.52
2022-09-01T11:47:14.518Z,0.50
2022-09-01T11:52:18.377Z,0.60
2022-09-01T11:57:25.969Z,0.50
2022-09-01T12:02:33.701Z,0.60
2022-09-01T12:07:42.608Z,0.45
2022-09-01T12:12:44.385Z,0.80
2022-09-01T12:17:46.445Z,0.70
2022-09-01T12:22:48.130Z,0.50
2022-09-01T12:27:50.764Z,0.40
2022-09-01T12:33:22.841Z,0.50
2022-09-01T12:38:20.928Z,0.73
2022-09-01T12:43:38.719Z,0.93
2022-09-01T12:48:41.698Z,0.50
2022-09-01T12:53:52.944Z,0.90
2022-09-01T12:59:04.436Z,0.70
2022-09-01T13:04:28.263Z,0.30
2022-09-01T13:09:30.086Z,0.40
2022-09-01T13:14:31.715Z,0.57
2022-09-01T13:19:33.223Z,0.45
2022-09-01T13:24:34.815Z,0.43
2022-09-01T13:29:36.365Z,0.50
2022-09-01T13:34:37.948Z,0.45
2022-09-01T13:39:40.094Z,0.50
2022-09-01T13:44:41.590Z,0.50
2022-09-01T13:50:04.682Z,0.47
2022-09-01T13:55:06.398Z,0.60
2022-09-01T14:00:15.663Z,0.65
2022-09-01T14:05:22.436Z,0.40
2022-09-01T14:15:27.465Z,0.40
2022-09-01T14:20:37.000Z,0.60
2022-09-01T14:25:43.882Z,0.40
2022-09-01T14:30:46.208Z,0.50
2022-09-01T14:35:48.158Z,0.32
2022-09-01T14:40:51.933Z,0.57
2022-09-01T14:46:10.834Z,0.50
2022-09-01T14:51:23.651Z,0.50
2022-09-01T14:56:26.084Z,0.40
2022-09-01T15:01:34.615Z,0.60
2022-09-01T15:06:36.685Z,0.95
2022-09-01T15:11:39.694Z,0.43
2022-09-01T15:16:47.049Z,0.63
2022-09-01T15:21:48.687Z,0.60
2022-09-01T15:26:50.206Z,0.60
2022-09-01T15:31:53.839Z,0.50
2022-09-01T15:36:55.365Z,0.55
2022-09-01T15:41:57.003Z,0.47
2022-09-01T15:46:58.527Z,0.57
2022-09-01T15:52:00.066Z,0.50
2022-09-01T15:57:01.601Z,0.70
2022-09-01T16:02:03.283Z,0.70
2022-09-01T16:07:04.925Z,0.52
2022-09-01T16:12:08.296Z,0.40
2022-09-01T16:17:58.306Z,0.50
2022-09-01T16:23:18.663Z,0.60
2022-09-01T16:28:38.313Z,0.73
2022-09-01T16:33:45.000Z,2.17
2022-09-01T16:38:53.637Z,0.50
2022-09-01T16:44:14.029Z,0.57
2022-09-01T16:49:34.179Z,0.45
2022-09-01T16:55:00.170Z,0.50
2022-09-01T17:00:08.405Z,0.77
2022-09-01T17:05:32.861Z,0.52
2022-09-01T17:10:51.070Z,0.70
2022-09-01T17:16:00.998Z,0.65
2022-09-01T17:21:20.941Z,0.60
2022-09-01T17:26:28.197Z,0.82
2022-09-01T17:31:41.916Z,0.60
2022-09-01T17:37:14.933Z,0.60
2022-09-01T17:42:40.411Z,0.93
2022-09-01T17:47:52.759Z,0.52
2022-09-01T17:53:29.598Z,0.52
2022-09-01T17:58:41.182Z,0.80
2022-09-01T18:04:13.889Z,0.60
2022-09-01T18:09:18.264Z,0.70
2022-09-01T18:14:30.160Z,0.63
2022-09-01T18:19:40.724Z,0.70
2022-09-01T18:24:54.291Z,0.50
2022-09-01T18:29:56.860Z,0.50
2022-09-01T18:35:29.537Z,0.70
2022-09-01T18:40:38.403Z,0.60
2022-09-01T18:46:26.775Z,1.33
2022-09-01T18:51:46.684Z,0.60
2022-09-01T18:57:03.728Z,0.68
2022-09-01T19:02:40.169Z,0.60
2022-09-01T19:08:01.296Z,0.73
2022-09-01T19:13:12.400Z,0.43
2022-09-01T19:18:41.450Z,0.68
2022-09-01T19:24:04.464Z,0.70
2022-09-01T19:29:16.889Z,1.17
2022-09-01T19:34:25.660Z,0.95
2022-09-01T19:39:30.614Z,0.60
2022-09-01T19:44:54.782Z,0.95
2022-09-01T19:50:05.466Z,0.88
2022-09-01T19:55:21.078Z,1.00
2022-09-01T20:00:27.361Z,1.23
2022-09-01T20:05:35.156Z,0.80
2022-09-01T20:11:00.000Z,0.80
2022-09-01T20:16:19.120Z,0.90
2022-09-01T20:21:21.453Z,0.70
2022-09-01T20:26:32.707Z,0.80
2022-09-01T20:31:40.579Z,0.70
2022-09-01T20:36:48.899Z,0.80
2022-09-01T20:42:04.982Z,1.00
2022-09-01T20:47:06.964Z,0.60
2022-09-01T20:52:40.065Z,1.58
2022-09-01T20:57:57.458Z,0.80
2022-09-01T21:08:27.968Z,0.73
2022-09-01T21:13:48.911Z,0.85
2022-09-01T21:19:08.200Z,0.70
2022-09-01T21:24:09.703Z,1.40
2022-09-01T21:29:37.278Z,0.90
2022-09-01T21:34:38.817Z,0.52
2022-09-01T21:39:40.374Z,0.70
2022-09-01T21:44:44.763Z,0.70
2022-09-01T21:49:46.402Z,0.70
2022-09-01T21:54:48.497Z,0.50
2022-09-01T21:59:51.385Z,0.70
2022-09-01T22:04:52.918Z,0.60
2022-09-01T22:09:54.616Z,0.77
2022-09-01T22:14:56.147Z,0.70
2022-09-01T22:19:58.313Z,0.85
2022-09-01T22:25:03.305Z,0.68
2022-09-01T22:30:06.082Z,1.00
2022-09-01T22:35:10.076Z,0.88
2022-09-01T22:40:12.815Z,0.85
2022-09-01T22:45:15.005Z,0.95
2022-09-01T22:50:16.500Z,0.80
2022-09-01T22:55:18.428Z,0.80
2022-09-01T23:00:19.911Z,0.70
2022-09-01T23:05:23.131Z,0.93
2022-09-01T23:10:25.394Z,1.00
2022-09-01T23:15:27.006Z,1.00
2022-09-01T23:20:28.687Z,0.70
2022-09-01T23:25:30.184Z,0.65
2022-09-01T23:30:31.732Z,0.93
2022-09-01T23:35:33.233Z,0.77
2022-09-01T23:40:34.803Z,0.50
2022-09-01T23:45:42.024Z,0.60
2022-09-01T23:55:51.496Z,0.65
